Time;durP1;ratioP1;P1;durP2;ratioP2;P2;SDS_P1;SDS_P2;PMS_P1;PMS_P2;Temp;Humidity;BMP_temperature;BMP_pressure;BME280_temperature;BME280_humidity;BME280_pressure;Samples;Min_cycle;Max_cycle;Signal;HPM_P1;HPM_P2
2022/10/12 00:01:28;;;;;;;5.80;2.75;;;;;;;4.88;100.00;101636.94;6040851;29;20537;-89
2022/10/12 00:04:30;;;;;;;5.63;2.80;;;;;;;4.92;100.00;101643.66;6045486;29;20056;-89
2022/10/12 00:07:31;;;;;;;5.50;3.03;;;;;;;4.89;100.00;101640.34;6043969;29;20053;-89
2022/10/12 00:10:38;;;;;;;5.43;2.55;;;;;;;4.87;100.00;101643.00;6038084;29;20166;-89
2022/10/12 00:13:40;;;;;;;5.47;2.50;;;;;;;4.85;100.00;101646.50;6042544;29;20048;-89
2022/10/12 00:16:41;;;;;;;9.43;3.10;;;;;;;4.83;100.00;101646.56;6039489;29;20041;-89
2022/10/12 00:19:43;;;;;;;6.75;3.22;;;;;;;4.80;100.00;101645.84;6043970;29;20049;-89
2022/10/12 00:22:45;;;;;;;7.70;3.00;;;;;;;4.85;100.00;101646.50;6054529;29;20056;-89
2022/10/12 00:25:47;;;;;;;5.65;2.60;;;;;;;4.85;100.00;101651.63;6036544;29;20037;-89
2022/10/12 00:28:55;;;;;;;9.13;3.35;;;;;;;4.85;100.00;101647.34;6048507;29;20514;-89
2022/10/12 00:31:57;;;;;;;7.45;2.88;;;;;;;4.82;100.00;101650.03;6029659;29;20041;-89
2022/10/12 00:34:59;;;;;;;5.97;3.05;;;;;;;4.78;100.00;101648.44;6043604;29;20173;-89
2022/10/12 00:38:01;;;;;;;6.35;3.25;;;;;;;4.81;100.00;101648.31;6049230;29;20061;-89
2022/10/12 00:41:04;;;;;;;4.35;2.38;;;;;;;4.80;100.00;101644.09;6035656;29;20045;-89
2022/10/12 00:44:36;;;;;;;12.18;3.60;;;;;;;4.80;100.00;101645.84;6033441;29;20120;-89
2022/10/12 00:47:43;;;;;;;8.13;3.00;;;;;;;4.67;100.00;101645.41;6043736;29;20408;-89
2022/10/12 00:50:45;;;;;;;11.13;3.78;;;;;;;4.68;100.00;101644.56;6037617;29;20093;-90
2022/10/12 00:53:54;;;;;;;6.32;2.65;;;;;;;4.68;100.00;101644.56;6039158;29;20148;-89
2022/10/12 00:56:56;;;;;;;4.32;2.72;;;;;;;4.68;100.00;101642.81;6026435;29;20113;-89
2022/10/12 01:00:04;;;;;;;5.88;2.78;;;;;;;4.63;100.00;101646.44;6035882;29;20506;-90
2022/10/12 01:03:08;;;;;;;5.15;2.45;;;;;;;4.59;100.00;101644.88;6033788;29;20040;-88
2022/10/12 01:06:11;;;;;;;5.47;2.55;;;;;;;4.59;100.00;101645.69;6031168;29;20037;-89
2022/10/12 01:09:13;;;;;;;7.00;3.00;;;;;;;4.53;100.00;101651.91;6032741;29;20475;-89
2022/10/12 01:12:16;;;;;;;5.65;2.53;;;;;;;4.47;100.00;101646.13;6038596;29;20449;-88
2022/10/12 01:15:18;;;;;;;6.20;2.58;;;;;;;4.49;100.00;101650.31;6036553;29;20104;-89
2022/10/12 01:18:38;;;;;;;3.83;2.15;;;;;;;4.47;100.00;101641.00;6047923;29;20099;-89
2022/10/12 01:22:00;;;;;;;6.43;2.15;;;;;;;4.41;100.00;101649.75;6044532;29;20064;-89
2022/10/12 01:25:01;;;;;;;;;;;;;;;4.40;100.00;101642.97;6047287;29;20189;-89
2022/10/12 01:28:43;;;;;;;4.45;2.22;;;;;;;4.34;100.00;101643.16;6041566;29;20460;-89
2022/10/12 01:32:23;;;;;;;5.45;2.58;;;;;;;4.36;100.00;101638.00;6045446;29;20055;-89
2022/10/12 01:35:50;;;;;;;8.13;2.55;;;;;;;4.32;100.00;101642.38;6044080;29;20485;-90
2022/10/12 01:38:59;;;;;;;6.93;2.28;;;;;;;4.31;100.00;101640.72;6048697;29;20525;-89
2022/10/12 01:42:14;;;;;;;5.00;1.88;;;;;;;4.29;100.00;101640.75;6050012;29;20053;-89
2022/10/12 01:45:18;;;;;;;4.97;2.10;;;;;;;4.23;100.00;101633.31;6039497;29;20061;-89
2022/10/12 01:48:19;;;;;;;7.22;2.28;;;;;;;4.23;100.00;101637.59;6042066;29;20050;-89
2022/10/12 01:51:44;;;;;;;5.28;1.90;;;;;;;4.20;100.00;101635.97;6040242;29;20045;-89
2022/10/12 01:55:20;;;;;;;4.72;2.17;;;;;;;4.18;100.00;101637.75;6047545;29;20049;-89
2022/10/12 01:58:58;;;;;;;5.47;2.20;;;;;;;4.18;100.00;101634.38;6041908;29;20051;-89
2022/10/12 02:02:06;;;;;;;4.30;2.25;;;;;;;4.13;100.00;101636.25;6036193;29;20145;-89
2022/10/12 02:05:31;;;;;;;4.45;2.20;;;;;;;4.16;100.00;101633.56;6043432;29;20049;-89
2022/10/12 02:08:41;;;;;;;4.55;2.53;;;;;;;4.12;100.00;101630.25;6039853;29;20050;-89
2022/10/12 02:11:45;;;;;;;;;;;;;;;4.04;100.00;101630.53;6041281;29;20385;-89
2022/10/12 02:14:59;;;;;;;5.20;2.22;;;;;;;4.06;100.00;101628.75;6048291;29;19978;-89
2022/10/12 02:18:03;;;;;;;5.78;2.55;;;;;;;4.04;100.00;101624.56;6043191;29;20053;-89
2022/10/12 02:21:07;;;;;;;5.63;2.13;;;;;;;4.05;100.00;101623.66;6043083;29;20049;-89
2022/10/12 02:24:12;;;;;;;4.80;2.35;;;;;;;3.98;100.00;101619.66;6040824;29;20053;-89
2022/10/12 02:27:15;;;;;;;5.22;2.00;;;;;;;3.97;100.00;101625.66;6058054;29;20148;-89
2022/10/12 02:30:18;;;;;;;3.35;2.30;;;;;;;3.95;100.00;101614.63;6045061;29;20040;-89
2022/10/12 02:33:41;;;;;;;5.50;1.90;;;;;;;3.94;100.00;101610.41;6046382;29;20041;-89
2022/10/12 02:37:33;;;;;;;5.57;2.15;;;;;;;3.93;100.00;101601.88;6050473;29;20172;-89
2022/10/12 02:40:47;;;;;;;4.20;2.28;;;;;;;3.96;100.00;101601.78;6035105;29;20050;-89
2022/10/12 02:44:16;;;;;;;4.88;2.03;;;;;;;3.97;100.00;101602.59;6032634;29;20064;-89
2022/10/12 02:47:22;;;;;;;5.65;1.80;;;;;;;3.93;100.00;101590.81;6033201;29;20060;-89
2022/10/12 02:50:25;;;;;;;2.95;1.90;;;;;;;3.93;100.00;101595.94;6041350;29;20523;-89
2022/10/12 02:53:29;;;;;;;7.28;2.13;;;;;;;3.94;100.00;101587.34;6025565;29;20491;-89
2022/10/12 02:56:31;;;;;;;3.20;2.10;;;;;;;3.91;100.00;101590.84;6040661;29;20048;-90
2022/10/12 02:59:32;;;;;;;6.07;1.65;;;;;;;3.88;100.00;101584.13;6039491;29;20151;-89
2022/10/12 03:02:34;;;;;;;3.22;1.98;;;;;;;3.90;100.00;101581.50;6036135;29;20511;-89
2022/10/12 03:05:36;;;;;;;2.70;1.88;;;;;;;3.86;100.00;101582.50;6040839;29;20546;-89
2022/10/12 03:08:38;;;;;;;3.85;1.92;;;;;;;3.85;100.00;101578.25;6039754;29;20088;-89
2022/10/12 03:11:43;;;;;;;3.58;1.80;;;;;;;3.80;100.00;101583.53;6043405;29;20061;-89
2022/10/12 03:14:45;;;;;;;4.03;2.28;;;;;;;3.77;100.00;101582.78;6049159;29;20095;-90
2022/10/12 03:17:47;;;;;;;6.32;2.38;;;;;;;3.77;100.00;101585.34;6035391;29;20045;-89
2022/10/12 03:20:48;;;;;;;5.82;1.98;;;;;;;3.74;100.00;101582.91;6037437;29;20049;-89
2022/10/12 03:23:50;;;;;;;4.20;1.95;;;;;;;3.71;100.00;101578.72;6033859;29;20061;-89
2022/10/12 03:26:52;;;;;;;4.47;2.05;;;;;;;3.70;100.00;101583.88;6028027;29;20045;-89
2022/10/12 03:29:54;;;;;;;4.35;1.85;;;;;;;3.67;100.00;101569.47;6030767;29;20033;-89
2022/10/12 03:32:55;;;;;;;4.55;1.80;;;;;;;3.62;100.00;101571.34;6041902;29;20374;-89
2022/10/12 03:35:58;;;;;;;4.93;1.58;;;;;;;3.62;100.00;101574.72;6054370;29;20055;-90
2022/10/12 03:39:00;;;;;;;6.30;2.00;;;;;;;3.54;100.00;101568.19;6033606;29;20041;-89
2022/10/12 03:42:03;;;;;;;4.95;1.70;;;;;;;3.54;100.00;101568.19;6053525;29;20053;-90
2022/10/12 03:45:05;;;;;;;3.35;1.60;;;;;;;3.51;100.00;101568.31;6040730;29;20052;-89
2022/10/12 03:48:08;;;;;;;7.45;1.83;;;;;;;3.50;100.00;101559.78;6039907;29;20048;-89
2022/10/12 03:51:10;;;;;;;4.30;2.30;;;;;;;3.51;100.00;101558.06;6037026;29;20048;-89
2022/10/12 03:54:12;;;;;;;5.13;2.03;;;;;;;3.53;100.00;101556.28;6045123;29;20052;-89
2022/10/12 03:57:14;;;;;;;4.03;1.80;;;;;;;3.54;100.00;101556.22;6039003;29;20671;-89
2022/10/12 04:00:16;;;;;;;5.97;2.55;;;;;;;3.52;100.00;101552.06;6045056;29;20049;-89
2022/10/12 04:03:17;;;;;;;2.55;1.77;;;;;;;3.54;100.00;101551.13;6039446;29;20052;-89
2022/10/12 04:06:19;;;;;;;4.32;2.40;;;;;;;3.50;100.00;101557.22;6040436;29;20049;-89
2022/10/12 04:09:20;;;;;;;5.00;1.90;;;;;;;3.48;100.00;101559.00;6050273;29;20086;-89
2022/10/12 04:12:23;;;;;;;5.38;2.40;;;;;;;3.44;100.00;101554.88;6046216;29;20059;-89
2022/10/12 04:15:25;;;;;;;6.82;2.15;;;;;;;3.44;100.00;101552.31;6029527;29;20077;-89
2022/10/12 04:18:28;;;;;;;5.30;2.70;;;;;;;3.37;100.00;101549.09;6027727;29;20591;-89
2022/10/12 04:21:30;;;;;;;3.38;2.08;;;;;;;3.35;100.00;101550.88;6047660;29;20060;-89
2022/10/12 04:24:32;;;;;;;3.28;1.80;;;;;;;3.34;100.00;101553.50;6046519;29;20163;-89
2022/10/12 04:27:34;;;;;;;6.15;2.22;;;;;;;3.33;100.00;101542.44;6038844;29;20453;-89
2022/10/12 04:30:36;;;;;;;5.75;2.50;;;;;;;3.36;100.00;101546.59;6046593;29;20049;-89
2022/10/12 04:33:38;;;;;;;6.68;3.85;;;;;;;3.35;100.00;101550.88;6046627;29;20842;-89
2022/10/12 04:36:39;;;;;;;4.78;2.28;;;;;;;3.31;100.00;101548.47;6045482;29;20273;-89
2022/10/12 04:39:41;;;;;;;4.97;2.53;;;;;;;3.22;100.00;101547.88;6047164;29;20514;-90
2022/10/12 04:42:43;;;;;;;4.30;2.35;;;;;;;3.23;100.00;101548.72;6046839;29;20041;-89
2022/10/12 04:45:59;;;;;;;5.97;2.53;;;;;;;3.16;100.00;101545.53;6047597;29;20072;-89
2022/10/12 04:49:00;;;;;;;3.83;2.40;;;;;;;3.18;100.00;101553.13;6047559;29;20048;-90
2022/10/12 04:52:02;;;;;;;3.75;2.53;;;;;;;3.18;100.00;101554.00;6047302;29;20054;-89
2022/10/12 04:55:05;;;;;;;6.55;2.95;;;;;;;3.19;100.00;101547.97;6051916;29;20045;-89
2022/10/12 04:58:06;;;;;;;4.65;2.65;;;;;;;3.20;100.00;101549.63;6038326;29;20060;-89
2022/10/12 05:01:08;;;;;;;5.35;2.28;;;;;;;3.19;100.00;101549.69;6043672;29;20103;-90
2022/10/12 05:04:10;;;;;;;3.53;2.30;;;;;;;3.19;100.00;101542.03;6046150;29;20041;-90
2022/10/12 05:07:12;;;;;;;5.03;2.30;;;;;;;3.17;100.00;101547.19;6046430;29;20115;-89
2022/10/12 05:10:15;;;;;;;5.25;2.40;;;;;;;3.18;100.00;101545.44;6044264;29;20057;-89
2022/10/12 05:13:17;;;;;;;6.47;2.40;;;;;;;3.13;100.00;101545.63;6046986;29;20044;-89
2022/10/12 05:16:18;;;;;;;6.82;2.22;;;;;;;3.12;100.00;101546.50;6046054;29;20417;-89
2022/10/12 05:19:21;;;;;;;4.60;2.50;;;;;;;3.14;100.00;101547.28;6045600;29;20041;-89
2022/10/12 05:22:23;;;;;;;4.80;2.90;;;;;;;3.12;100.00;101554.16;6046552;29;20124;-89
2022/10/12 05:25:24;;;;;;;4.20;2.90;;;;;;;3.07;100.00;101537.28;6039294;29;20151;-89
2022/10/12 05:28:26;;;;;;;5.22;2.50;;;;;;;3.04;100.00;101543.34;6041564;29;20049;-89
2022/10/12 05:31:28;;;;;;;5.70;2.80;;;;;;;3.02;100.00;101545.09;6038415;29;20045;-89
2022/10/12 05:34:31;;;;;;;3.63;2.50;;;;;;;3.08;100.00;101544.06;6056374;29;20046;-90
2022/10/12 05:37:33;;;;;;;6.68;2.90;;;;;;;3.09;100.00;101545.75;6043093;29;20041;-90
2022/10/12 05:40:35;;;;;;;6.68;2.45;;;;;;;3.12;100.00;101538.00;6043762;29;20064;-89
2022/10/12 05:43:36;;;;;;;5.03;2.35;;;;;;;3.16;100.00;101537.00;6047549;29;20048;-89
2022/10/12 05:46:38;;;;;;;4.47;2.22;;;;;;;3.17;100.00;101533.56;6046952;29;20077;-89
2022/10/12 05:49:40;;;;;;;6.20;2.20;;;;;;;3.28;100.00;101533.22;6045934;29;20041;-89
2022/10/12 05:52:42;;;;;;;11.30;2.85;;;;;;;3.40;100.00;101532.81;6053433;29;20044;-89
2022/10/12 05:55:54;;;;;;;6.30;1.90;;;;;;;3.51;100.00;101538.44;6039190;29;20401;-89
2022/10/12 05:58:56;;;;;;;5.45;2.25;;;;;;;3.61;100.00;101531.28;6045963;29;20193;-90
2022/10/12 06:01:58;;;;;;;6.78;1.95;;;;;;;3.67;100.00;101528.50;6036100;29;20057;-89
2022/10/12 06:05:00;;;;;;;5.18;2.28;;;;;;;3.73;100.00;101532.59;6035787;29;20128;-89
2022/10/12 06:08:02;;;;;;;5.85;2.17;;;;;;;3.79;100.00;101532.38;6037859;29;20117;-91
2022/10/12 06:11:04;;;;;;;9.48;2.80;;;;;;;3.83;100.00;101537.34;6035228;29;20048;-89
2022/10/12 06:14:06;;;;;;;4.43;2.42;;;;;;;3.84;100.00;101533.03;6046649;29;20071;-89
2022/10/12 06:17:08;;;;;;;10.02;2.88;;;;;;;3.90;100.00;101535.41;6042329;29;20044;-89
2022/10/12 06:20:10;;;;;;;6.68;2.50;;;;;;;3.95;100.00;101533.53;6041638;29;20075;-89
2022/10/12 06:23:12;;;;;;;7.60;2.30;;;;;;;3.97;100.00;101538.56;6057583;29;20680;-89
2022/10/12 06:26:15;;;;;;;5.03;1.95;;;;;;;4.01;100.00;101535.03;6043703;29;20084;-89
2022/10/12 06:29:17;;;;;;;7.30;2.65;;;;;;;4.05;100.00;101541.69;6042881;29;20048;-89
2022/10/12 06:32:19;;;;;;;9.02;2.50;;;;;;;4.09;100.00;101527.88;6042765;29;20552;-89
2022/10/12 06:35:21;;;;;;;3.28;2.20;;;;;;;4.15;100.00;101537.06;6035619;29;20535;-90
2022/10/12 06:38:23;;;;;;;6.97;2.35;;;;;;;4.17;100.00;101531.00;6042639;29;20504;-89
2022/10/12 06:41:24;;;;;;;4.15;2.50;;;;;;;4.19;100.00;101534.34;6035781;29;20430;-89
2022/10/12 06:44:26;;;;;;;7.95;2.58;;;;;;;4.26;100.00;101533.25;6039975;29;20401;-89
2022/10/12 06:47:28;;;;;;;6.75;2.33;;;;;;;4.28;100.00;101534.03;6042410;29;20033;-90
2022/10/12 06:50:30;;;;;;;9.18;2.88;;;;;;;4.30;100.00;101534.81;6046915;29;20052;-89
2022/10/12 06:53:33;;;;;;;5.15;2.72;;;;;;;4.36;100.00;101533.75;6045551;29;20048;-89
2022/10/12 06:56:37;;;;;;;5.15;2.30;;;;;;;4.41;100.00;101539.53;6033891;29;20053;-89
2022/10/12 06:59:38;;;;;;;4.40;2.13;;;;;;;4.42;100.00;101543.78;6029803;29;20068;-89
2022/10/12 07:02:40;;;;;;;7.75;2.78;;;;;;;4.46;100.00;101547.06;6039205;29;20045;-90
2022/10/12 07:05:42;;;;;;;7.18;3.17;;;;;;;4.50;100.00;101539.19;6041969;29;20049;-89
2022/10/12 07:08:44;;;;;;;7.13;2.97;;;;;;;4.53;100.00;101535.69;6044435;29;20044;-89
2022/10/12 07:11:46;;;;;;;5.53;2.45;;;;;;;4.60;100.00;101536.31;6045388;29;20560;-90
2022/10/12 07:14:48;;;;;;;8.85;2.72;;;;;;;4.62;100.00;101537.06;6041877;29;20506;-90
2022/10/12 07:17:49;;;;;;;4.20;2.17;;;;;;;4.69;100.00;101543.63;6038101;29;21495;-90
2022/10/12 07:20:53;;;;;;;8.77;2.78;;;;;;;4.72;100.00;101533.25;6044368;29;20077;-89
2022/10/12 07:23:55;;;;;;;5.50;2.78;;;;;;;4.72;100.00;101536.66;6043091;29;20075;-89
2022/10/12 07:26:57;;;;;;;4.43;2.65;;;;;;;4.75;100.00;101539.13;6042196;29;20220;-89
2022/10/12 07:29:58;;;;;;;9.40;2.95;;;;;;;4.80;100.00;101538.13;6042753;29;20049;-89
2022/10/12 07:33:00;;;;;;;7.78;2.70;;;;;;;4.84;100.00;101539.63;6041571;29;20052;-90
2022/10/12 07:36:02;;;;;;;5.35;2.50;;;;;;;4.88;100.00;101530.94;6034773;29;20092;-89
2022/10/12 07:39:15;;;;;;;4.35;2.30;;;;;;;4.91;100.00;101534.22;6036083;29;20045;-89
2022/10/12 07:42:17;;;;;;;4.15;2.47;;;;;;;4.95;100.00;101540.91;6046557;29;20147;-89
2022/10/12 07:45:21;;;;;;;5.82;2.63;;;;;;;5.00;100.00;101548.44;6046604;29;20057;-89
2022/10/12 07:48:22;;;;;;;6.50;2.70;;;;;;;5.04;100.00;101547.38;6041064;29;20435;-89
2022/10/12 07:51:24;;;;;;;4.85;2.42;;;;;;;5.08;100.00;101545.56;6044136;29;20071;-89
2022/10/12 07:54:28;;;;;;;6.20;2.97;;;;;;;5.11;100.00;101548.00;6043566;29;20037;-89
2022/10/12 07:57:30;;;;;;;6.47;2.40;;;;;;;5.15;100.00;101550.38;6048259;29;20508;-89
2022/10/12 08:00:32;;;;;;;7.25;2.83;;;;;;;5.20;100.00;101544.25;6047189;29;20567;-89
2022/10/12 08:03:34;;;;;;;7.15;3.05;;;;;;;5.22;100.00;101550.13;6045053;29;20041;-89
2022/10/12 08:06:36;;;;;;;9.95;2.78;;;;;;;5.27;100.00;101543.94;6042679;29;20060;-89
2022/10/12 08:09:38;;;;;;;6.53;2.85;;;;;;;5.31;100.00;101542.06;6038361;29;20148;-89
2022/10/12 08:12:40;;;;;;;7.97;2.95;;;;;;;5.37;100.00;101545.22;6042424;29;20045;-89
2022/10/12 08:15:48;;;;;;;5.22;2.55;;;;;;;5.43;100.00;101559.53;6049761;29;20450;-89
2022/10/12 08:18:50;;;;;;;11.73;3.40;;;;;;;5.48;100.00;101557.63;6049992;29;20037;-89
2022/10/12 08:21:52;;;;;;;6.10;2.47;;;;;;;5.55;100.00;101556.47;6046898;29;20044;-89
2022/10/12 08:24:54;;;;;;;8.35;3.08;;;;;;;5.63;100.00;101553.56;6043349;29;20096;-90
2022/10/12 08:27:57;;;;;;;5.78;2.80;;;;;;;5.70;100.00;101551.59;6048650;29;20397;-90
2022/10/12 08:30:59;;;;;;;4.55;3.00;;;;;;;5.77;100.00;101558.16;6050625;29;20049;-89
2022/10/12 08:34:02;;;;;;;8.63;3.70;;;;;;;5.85;100.00;101556.09;6047379;29;20513;-89
2022/10/12 08:37:04;;;;;;;9.68;2.80;;;;;;;5.94;100.00;101560.03;6043037;29;20053;-90
2022/10/12 08:40:06;;;;;;;7.00;2.60;;;;;;;6.03;100.00;101559.63;6048378;29;20354;-89
2022/10/12 08:43:51;;;;;;;5.68;2.60;;;;;;;6.12;100.00;101564.38;6038931;29;20053;-90
2022/10/12 08:47:16;;;;;;;5.40;2.88;;;;;;;6.21;100.00;101563.13;6036337;29;20073;-89
2022/10/12 08:50:50;;;;;;;4.28;2.47;;;;;;;6.33;100.00;101566.91;6048958;29;20044;-89
2022/10/12 08:54:13;;;;;;;5.55;2.38;;;;;;;6.43;100.00;101565.56;6018117;29;20096;-89
2022/10/12 08:57:21;;;;;;;4.75;2.50;;;;;;;6.50;100.00;101573.84;6028931;29;20072;-90
2022/10/12 09:00:23;;;;;;;9.43;2.83;;;;;;;6.57;100.00;101570.94;6026403;29;20059;-89
2022/10/12 09:03:49;;;;;;;8.07;2.97;;;;;;;6.64;100.00;101562.03;6012476;29;20328;-90
2022/10/12 09:07:11;;;;;;;9.48;2.70;;;;;;;6.73;100.00;101567.66;6016606;29;20049;-90
2022/10/12 09:10:44;;;;;;;7.95;2.83;;;;;;;6.81;100.00;101558.69;6029484;29;20068;-89
2022/10/12 09:14:09;;;;;;;7.07;2.88;;;;;;;6.93;100.00;101556.44;5966258;29;20444;-90
2022/10/12 09:17:37;;;;;;;7.97;2.85;;;;;;;7.03;100.00;101553.38;5971248;29;20105;-90
2022/10/12 09:20:46;;;;;;;8.88;3.00;;;;;;;7.15;100.00;101549.34;5975814;29;20531;-89
2022/10/12 09:23:48;;;;;;;7.57;2.63;;;;;;;7.29;100.00;101543.56;5960785;29;20062;-89
2022/10/12 09:26:54;;;;;;;8.90;2.97;;;;;;;7.41;100.00;101544.69;5973546;29;20081;-89
2022/10/12 09:30:01;;;;;;;7.13;2.55;;;;;;;7.54;100.00;101549.16;5982917;29;20077;-89
2022/10/12 09:33:11;;;;;;;10.25;2.78;;;;;;;7.66;100.00;101547.72;6006571;29;20519;-89
2022/10/12 09:36:18;;;;;;;7.00;2.10;;;;;;;7.76;100.00;101550.66;6012840;29;20872;-89
2022/10/12 09:39:29;;;;;;;8.13;2.50;;;;;;;7.85;100.00;101545.06;6021325;29;20057;-92
2022/10/12 09:42:32;;;;;;;7.78;2.38;;;;;;;7.94;100.00;101536.81;6018533;29;20057;-89
2022/10/12 09:45:35;;;;;;;9.02;2.42;;;;;;;8.07;100.00;101541.34;6021146;29;20553;-89
2022/10/12 09:48:37;;;;;;;6.07;2.40;;;;;;;8.22;100.00;101531.97;6010296;29;20584;-89
2022/10/12 09:51:39;;;;;;;7.47;2.35;;;;;;;8.33;100.00;101534.84;6042628;29;21080;-89
2022/10/12 09:54:57;;;;;;;10.38;2.70;;;;;;;8.49;100.00;101534.88;6046323;29;20615;-90
2022/10/12 09:58:01;;;;;;;6.03;2.13;;;;;;;8.67;100.00;101535.59;6045769;29;20060;-90
2022/10/12 10:01:22;;;;;;;4.82;2.30;;;;;;;8.83;100.00;101536.44;6059936;29;20633;-88
2022/10/12 10:04:25;;;;;;;9.10;2.38;;;;;;;9.03;100.00;101520.66;6043406;29;20045;-87
2022/10/12 10:07:32;;;;;;;8.75;2.65;;;;;;;9.17;100.00;101529.38;6047694;29;20041;-87
2022/10/12 10:10:33;;;;;;;7.85;2.70;;;;;;;9.26;100.00;101521.91;6048726;29;20570;-87
2022/10/12 10:13:36;;;;;;;4.85;2.10;;;;;;;9.29;100.00;101523.50;6031716;29;20053;-87
2022/10/12 10:16:48;;;;;;;7.32;2.42;;;;;;;9.19;100.00;101528.38;6044527;29;20286;-87
2022/10/12 10:19:52;;;;;;;9.13;2.35;;;;;;;9.11;100.00;101524.56;6052452;29;20100;-88
2022/10/12 10:22:55;;;;;;;8.02;2.42;;;;;;;9.21;100.00;101520.53;6047875;29;20344;-88
2022/10/12 10:26:02;;;;;;;10.43;2.50;;;;;;;9.42;100.00;101519.31;6050101;29;20052;-88
2022/10/12 10:29:39;;;;;;;6.45;2.33;;;;;;;9.65;100.00;101520.53;6045654;29;20120;-88
2022/10/12 10:32:44;;;;;;;9.32;2.60;;;;;;;9.87;100.00;101507.16;6046923;29;20132;-87
2022/10/12 10:36:08;;;;;;;10.38;2.78;;;;;;;10.07;100.00;101513.72;6046255;29;20073;-87
2022/10/12 10:39:45;;;;;;;8.63;2.55;;;;;;;10.27;100.00;101506.47;6048479;29;20087;-87
2022/10/12 10:43:30;;;;;;;5.53;2.65;;;;;;;10.44;100.00;101503.72;6041593;29;20487;-87
2022/10/12 10:46:35;;;;;;;8.90;2.67;;;;;;;10.59;100.00;101496.72;5953640;29;20055;-88
2022/10/12 10:49:41;;;;;;;9.15;2.42;;;;;;;10.76;100.00;101493.06;5952058;29;20082;-87
2022/10/12 10:52:55;;;;;;;7.70;1.90;;;;;;;10.92;100.00;101483.38;5952331;29;20145;-87
2022/10/12 10:56:10;;;;;;;5.25;2.10;;;;;;;11.02;100.00;101487.97;5958612;29;20525;-87
2022/10/12 10:59:26;;;;;;;8.60;2.53;;;;;;;11.04;100.00;101483.50;5950966;29;20065;-88
2022/10/12 11:02:37;;;;;;;7.65;2.05;;;;;;;11.12;100.00;101479.47;5953892;29;20054;-87
2022/10/12 11:05:45;;;;;;;7.67;2.47;;;;;;;11.27;100.00;101474.22;5953847;29;20070;-87
2022/10/12 11:08:53;;;;;;;4.53;2.17;;;;;;;11.24;100.00;101477.84;5951167;29;20346;-88
2022/10/12 11:12:20;;;;;;;7.50;2.28;;;;;;;11.34;100.00;101472.88;5949691;29;20072;-88
2022/10/12 11:15:34;;;;;;;7.72;2.38;;;;;;;11.64;100.00;101473.38;5940231;29;20359;-88
2022/10/12 11:18:52;;;;;;;9.30;2.33;;;;;;;11.90;100.00;101472.56;5947336;29;20438;-88
2022/10/12 11:22:00;;;;;;;5.43;1.60;;;;;;;12.06;100.00;101473.16;5987458;29;20060;-88
2022/10/12 11:25:13;;;;;;;5.05;1.67;;;;;;;12.10;100.00;101466.81;6041160;29;20072;-88
2022/10/12 11:28:15;;;;;;;3.58;1.50;;;;;;;12.15;100.00;101463.88;6048866;29;20052;-87
2022/10/12 11:31:26;;;;;;;3.92;1.65;;;;;;;12.14;99.30;101447.47;6049636;29;20059;-87
2022/10/12 11:34:36;;;;;;;5.72;1.77;;;;;;;12.03;99.39;101450.03;6054262;29;20053;-88
2022/10/12 11:37:50;;;;;;;5.57;1.70;;;;;;;12.00;98.56;101445.03;6042577;29;20056;-88
2022/10/12 11:41:24;;;;;;;5.03;1.83;;;;;;;12.09;96.64;101439.19;6057931;29;20056;-88
2022/10/12 11:44:46;;;;;;;7.40;2.00;;;;;;;12.17;96.30;101428.25;6030794;29;20122;-88
2022/10/12 11:47:54;;;;;;;6.70;1.95;;;;;;;12.29;97.16;101422.19;6049283;29;20041;-88
2022/10/12 11:50:57;;;;;;;3.00;1.60;;;;;;;12.38;95.07;101424.13;6045712;29;20056;-88
2022/10/12 11:54:21;;;;;;;5.15;1.90;;;;;;;12.42;94.84;101419.53;6060814;29;20074;-88
2022/10/12 11:57:29;;;;;;;4.55;1.80;;;;;;;12.43;93.63;101410.84;6047991;29;20052;-88
2022/10/12 12:00:47;;;;;;;5.88;1.70;;;;;;;12.47;91.79;101420.03;6049324;29;20068;-88
2022/10/12 12:03:58;;;;;;;4.57;1.55;;;;;;;12.56;89.83;101415.97;6047486;29;20416;-88
2022/10/12 12:07:22;;;;;;;6.20;2.30;;;;;;;12.66;90.57;101404.78;6050513;29;20045;-88
2022/10/12 12:10:24;;;;;;;4.15;1.65;;;;;;;12.72;91.22;101411.31;6044673;29;20041;-88
2022/10/12 12:13:27;;;;;;;4.30;1.92;;;;;;;12.76;89.02;101409.28;6055633;29;20053;-88
2022/10/12 12:16:31;;;;;;;7.10;1.85;;;;;;;12.84;87.79;101399.97;6047853;29;20427;-88
2022/10/12 12:19:41;;;;;;;6.47;1.65;;;;;;;12.95;87.14;101399.19;6047026;29;20049;-88
2022/10/12 12:22:54;;;;;;;3.58;1.52;;;;;;;13.03;89.31;101393.41;6046489;29;20045;-88
2022/10/12 12:26:11;;;;;;;4.05;1.67;;;;;;;13.07;87.72;101393.06;6058804;29;20041;-88
2022/10/12 12:29:28;;;;;;;3.20;1.35;;;;;;;13.13;88.45;101395.19;6037466;29;20041;-88
2022/10/12 12:33:13;;;;;;;10.23;1.80;;;;;;;13.19;88.51;101382.66;6051885;29;20041;-88
2022/10/12 12:36:28;;;;;;;3.88;1.38;;;;;;;13.22;86.64;101377.25;6022700;29;20072;-88
2022/10/12 12:39:33;;;;;;;3.78;1.58;;;;;;;13.30;86.70;101380.94;6021672;29;20144;-88
2022/10/12 12:42:35;;;;;;;11.30;1.92;;;;;;;13.43;86.15;101378.22;6018992;29;20088;-88
2022/10/12 12:45:39;;;;;;;3.35;1.20;;;;;;;13.51;85.78;101372.41;6004093;29;20058;-88
2022/10/12 12:48:41;;;;;;;4.45;1.50;;;;;;;13.63;83.61;101373.25;6019761;29;20061;-88
2022/10/12 12:51:43;;;;;;;9.02;1.85;;;;;;;13.69;84.87;101365.78;6021406;29;20041;-88
2022/10/12 12:55:09;;;;;;;3.70;1.42;;;;;;;13.45;84.66;101367.72;6029311;29;20053;-88
2022/10/12 12:58:36;;;;;;;6.70;1.65;;;;;;;13.13;84.12;101363.19;6006998;29;20049;-88
2022/10/12 13:02:13;;;;;;;7.22;2.38;;;;;;;12.73;88.45;101367.97;6021385;29;20049;-88
2022/10/12 13:05:33;;;;;;;5.60;1.55;;;;;;;12.43;90.01;101364.91;6021455;29;20136;-89
2022/10/12 13:08:50;;;;;;;7.15;1.60;;;;;;;12.23;91.15;101357.75;6027378;29;20628;-88
2022/10/12 13:11:52;;;;;;;4.30;1.67;;;;;;;12.13;92.87;101359.38;6028016;29;20049;-88
2022/10/12 13:15:12;;;;;;;5.57;1.80;;;;;;;12.25;93.05;101353.28;6041543;29;20123;-88
2022/10/12 13:18:33;;;;;;;3.78;1.70;;;;;;;12.73;91.59;101354.97;6044654;29;20057;-88
2022/10/12 13:21:53;;;;;;;8.00;1.92;;;;;;;13.18;87.72;101348.06;6041752;29;20536;-88
2022/10/12 13:25:02;;;;;;;3.65;1.70;;;;;;;13.50;87.90;101348.19;6047297;29;20049;-88
2022/10/12 13:28:11;;;;;;;6.88;2.22;;;;;;;13.49;85.76;101349.16;6050790;29;20165;-89
2022/10/12 13:31:31;;;;;;;6.30;1.95;;;;;;;13.30;87.12;101344.53;6050033;29;20047;-88
2022/10/12 13:34:48;;;;;;;5.03;1.40;;;;;;;13.21;87.94;101340.00;6044015;29;20087;-89
2022/10/12 13:38:14;;;;;;;6.60;2.17;;;;;;;13.06;87.98;101341.19;6044015;29;20476;-89
2022/10/12 13:41:19;;;;;;;5.13;1.55;;;;;;;12.76;89.99;101328.75;6040207;29;20044;-89
2022/10/12 13:44:25;;;;;;;7.65;2.03;;;;;;;12.60;91.43;101321.31;6034608;29;20171;-89
2022/10/12 13:47:30;;;;;;;8.20;2.22;;;;;;;12.83;91.17;101322.97;6035777;29;20519;-90
2022/10/12 13:50:33;;;;;;;5.60;1.67;;;;;;;13.17;87.98;101317.81;6043237;29;20100;-89
2022/10/12 13:53:38;;;;;;;3.83;1.65;;;;;;;13.47;86.74;101317.22;6043812;29;20416;-88
2022/10/12 13:56:40;;;;;;;3.75;1.23;;;;;;;13.72;85.49;101312.69;6040897;29;20032;-89
2022/10/12 13:59:43;;;;;;;5.75;1.92;;;;;;;13.89;84.04;101317.38;6043216;29;20053;-88
2022/10/12 14:03:01;;;;;;;5.93;2.13;;;;;;;14.08;83.08;101308.06;6045325;29;20056;-88
2022/10/12 14:06:03;;;;;;;5.43;2.00;;;;;;;14.12;82.94;101305.09;6039209;29;20070;-88
2022/10/12 14:09:11;;;;;;;5.43;1.50;;;;;;;14.13;82.68;101295.50;6046370;29;20405;-89
2022/10/12 14:12:14;;;;;;;5.35;1.98;;;;;;;14.11;81.51;101294.78;6043395;29;20467;-88
2022/10/12 14:15:17;;;;;;;7.10;1.95;;;;;;;14.17;82.16;101291.69;6044782;29;20055;-88
2022/10/12 14:18:40;;;;;;;5.40;1.70;;;;;;;14.19;82.17;101292.41;6045898;29;20404;-88
2022/10/12 14:21:45;;;;;;;3.78;1.70;;;;;;;14.19;82.27;101289.81;6044388;29;20571;-89
2022/10/12 14:24:48;;;;;;;4.15;1.50;;;;;;;14.15;81.97;101286.59;6047363;29;20524;-89
2022/10/12 14:27:59;;;;;;;3.90;1.65;;;;;;;14.16;81.72;101282.22;6042667;29;20053;-88
2022/10/12 14:31:01;;;;;;;3.45;1.63;;;;;;;14.18;83.05;101277.72;6052913;29;20060;-88
2022/10/12 14:34:22;;;;;;;6.30;1.45;;;;;;;14.22;82.84;101279.13;6038344;29;20045;-88